createdAt,value
2023-02-09T00:02:10.381Z,20.93
2023-02-09T00:07:13.629Z,17.43
2023-02-09T00:12:35.757Z,10.83
2023-02-09T00:17:39.460Z,20.10
2023-02-09T00:22:42.844Z,20.73
2023-02-09T00:27:46.240Z,18.90
2023-02-09T00:32:49.569Z,18.53
2023-02-09T00:37:52.983Z,16.93
2023-02-09T00:42:56.394Z,18.10
2023-02-09T00:48:00.542Z,19.07
2023-02-09T00:53:03.885Z,20.23
2023-02-09T00:58:07.789Z,17.87
2023-02-09T01:03:11.407Z,15.43
2023-02-09T01:08:14.729Z,18.97
2023-02-09T01:13:18.047Z,16.07
2023-02-09T01:18:21.592Z,17.23
2023-02-09T01:23:24.866Z,16.17
2023-02-09T01:28:28.294Z,17.30
2023-02-09T01:33:32.412Z,16.77
2023-02-09T01:38:35.637Z,18.40
2023-02-09T01:43:58.557Z,16.77
2023-02-09T01:49:16.334Z,19.40
2023-02-09T01:54:38.659Z,16.63
2023-02-09T01:59:45.415Z,17.83
2023-02-09T02:04:49.207Z,14.97
2023-02-09T02:09:53.125Z,16.33
2023-02-09T02:14:56.827Z,16.97
2023-02-09T02:20:18.573Z,14.33
2023-02-09T02:25:52.755Z,15.30
2023-02-09T02:31:28.813Z,14.60
2023-02-09T02:37:10.192Z,16.97
2023-02-09T02:42:42.392Z,15.07
2023-02-09T02:47:58.823Z,16.90
2023-02-09T02:53:06.351Z,13.83
2023-02-09T02:58:13.546Z,16.40
2023-02-09T03:03:22.370Z,15.00
2023-02-09T03:08:25.753Z,16.30
2023-02-09T03:13:59.450Z,15.30
2023-02-09T03:19:14.962Z,16.77
2023-02-09T03:24:40.165Z,12.80
2023-02-09T03:29:49.827Z,16.33
2023-02-09T03:34:53.617Z,17.43
2023-02-09T03:39:57.027Z,18.23
2023-02-09T03:45:00.746Z,20.70
2023-02-09T03:50:07.301Z,20.10
2023-02-09T03:55:10.570Z,17.13
2023-02-09T04:00:14.676Z,18.00
2023-02-09T04:05:18.162Z,12.90
2023-02-09T04:10:21.636Z,16.33
2023-02-09T04:15:25.054Z,13.10
2023-02-09T04:20:28.354Z,14.20
2023-02-09T04:25:31.923Z,14.30
2023-02-09T04:30:35.349Z,12.13
2023-02-09T04:35:38.694Z,11.10
2023-02-09T04:40:42.357Z,12.33
2023-02-09T04:45:46.032Z,16.00
2023-02-09T04:50:50.128Z,15.20
2023-02-09T04:55:54.258Z,15.40
2023-02-09T05:00:58.333Z,14.93
2023-02-09T05:06:04.651Z,16.40
2023-02-09T05:11:08.180Z,11.17
2023-02-09T05:16:15.423Z,11.87
2023-02-09T05:21:18.893Z,13.93
2023-02-09T05:26:22.090Z,14.17
2023-02-09T05:31:25.465Z,10.03
2023-02-09T05:36:28.801Z,14.97
2023-02-09T05:41:50.427Z,13.97
2023-02-09T05:46:53.930Z,12.03
2023-02-09T05:51:57.322Z,11.23
2023-02-09T05:57:00.531Z,10.90
2023-02-09T06:17:44.445Z,19.60
2023-02-09T06:22:47.943Z,21.97
2023-02-09T06:27:51.238Z,19.40
2023-02-09T06:32:54.894Z,21.53
2023-02-09T06:37:59.426Z,15.60
2023-02-09T06:43:02.759Z,17.73
2023-02-09T06:48:06.766Z,16.03
2023-02-09T06:53:10.198Z,17.00
2023-02-09T06:58:13.519Z,14.43
2023-02-09T07:03:17.578Z,17.33
2023-02-09T07:08:21.198Z,16.07
2023-02-09T07:13:24.412Z,16.67
2023-02-09T07:18:28.335Z,17.43
2023-02-09T07:23:31.830Z,15.70
2023-02-09T07:28:37.255Z,17.87
2023-02-09T07:33:41.043Z,18.83
2023-02-09T07:38:44.423Z,21.67
2023-02-09T07:43:48.734Z,14.67
2023-02-09T07:48:52.300Z,19.53
2023-02-09T07:53:58.828Z,24.10
2023-02-09T07:59:02.811Z,23.37
2023-02-09T08:04:06.065Z,20.50
2023-02-09T08:09:11.534Z,21.43
2023-02-09T08:14:25.753Z,19.77
2023-02-09T08:19:31.039Z,21.67
2023-02-09T08:24:34.785Z,26.93
2023-02-09T08:29:42.647Z,26.17
2023-02-09T08:34:45.730Z,23.40
2023-02-09T08:39:49.156Z,23.90
2023-02-09T08:44:52.796Z,27.73
2023-02-09T08:49:56.388Z,27.03
2023-02-09T08:55:00.091Z,30.47
2023-02-09T09:00:04.589Z,32.93
2023-02-09T09:05:09.101Z,28.60
2023-02-09T09:10:13.442Z,24.10
2023-02-09T09:15:17.033Z,32.67
2023-02-09T09:20:20.570Z,29.90
2023-02-09T09:25:23.789Z,36.13
2023-02-09T09:30:28.026Z,29.40
2023-02-09T09:35:31.657Z,29.30
2023-02-09T09:40:36.986Z,30.53
2023-02-09T09:45:40.745Z,32.87
2023-02-09T09:50:46.203Z,30.27
2023-02-09T09:55:55.614Z,32.83
2023-02-09T10:00:59.132Z,30.90
2023-02-09T10:06:15.851Z,32.53
2023-02-09T10:11:25.559Z,29.37
2023-02-09T10:16:36.127Z,31.53
2023-02-09T10:21:40.742Z,25.10
2023-02-09T10:26:45.628Z,22.77
2023-02-09T10:31:55.581Z,31.03
2023-02-09T10:37:20.969Z,27.53
2023-02-09T10:42:33.997Z,25.47
2023-02-09T10:47:39.018Z,29.43
2023-02-09T10:53:02.354Z,22.23
2023-02-09T10:58:11.943Z,29.63
2023-02-09T11:03:25.782Z,29.73
2023-02-09T11:08:46.514Z,26.07
2023-02-09T11:13:50.447Z,29.53
2023-02-09T11:19:14.624Z,24.37
2023-02-09T11:25:12.180Z,31.20
2023-02-09T11:30:43.072Z,34.67
2023-02-09T11:35:59.270Z,34.07
2023-02-09T11:41:24.471Z,29.63
2023-02-09T11:46:32.295Z,35.77
2023-02-09T11:51:38.809Z,32.67
2023-02-09T11:56:46.778Z,33.93
2023-02-09T12:02:04.941Z,32.97
2023-02-09T12:07:17.551Z,30.03
2023-02-09T12:12:39.699Z,31.03
2023-02-09T12:17:46.017Z,29.17
2023-02-09T12:23:08.143Z,27.40
2023-02-09T12:28:17.300Z,28.80
2023-02-09T12:33:31.361Z,31.03
2023-02-09T12:39:04.646Z,26.93
2023-02-09T12:44:11.683Z,25.43
2023-02-09T12:49:14.941Z,27.97
2023-02-09T12:54:46.210Z,26.70
2023-02-09T12:59:53.686Z,29.20
2023-02-09T13:05:10.231Z,28.53
2023-02-09T13:10:26.011Z,24.90
2023-02-09T13:15:47.686Z,27.43
2023-02-09T13:20:57.955Z,20.17
2023-02-09T13:26:24.346Z,24.97
2023-02-09T13:31:36.138Z,20.67
2023-02-09T13:37:15.189Z,27.13
2023-02-09T13:42:21.379Z,23.27
2023-02-09T13:47:26.162Z,27.80
2023-02-09T13:52:39.139Z,28.33
2023-02-09T13:57:46.158Z,24.97
2023-02-09T14:03:01.303Z,24.27
2023-02-09T14:08:05.310Z,22.57
2023-02-09T14:13:15.311Z,24.87
2023-02-09T14:18:40.438Z,22.53
2023-02-09T14:24:08.705Z,22.00
2023-02-09T14:29:16.902Z,20.67
2023-02-09T14:34:40.782Z,24.80
2023-02-09T14:39:55.189Z,22.13
2023-02-09T14:45:15.698Z,22.83
2023-02-09T14:50:22.636Z,23.73
2023-02-09T14:55:30.138Z,21.93
2023-02-09T15:00:34.280Z,18.50
2023-02-09T15:05:37.925Z,22.13
2023-02-09T15:10:48.839Z,20.57
2023-02-09T15:15:52.644Z,22.80
2023-02-09T15:20:56.441Z,22.60
2023-02-09T15:25:59.844Z,23.00
2023-02-09T15:31:04.164Z,21.57
2023-02-09T15:36:08.895Z,21.03
2023-02-09T15:41:31.059Z,21.80
2023-02-09T15:46:53.428Z,20.27
2023-02-09T15:51:57.717Z,19.53
2023-02-09T15:57:01.814Z,20.50
2023-02-09T16:02:24.061Z,22.40
2023-02-09T16:07:27.597Z,22.13
2023-02-09T16:12:31.152Z,20.60
2023-02-09T16:17:43.294Z,18.17
2023-02-09T16:22:53.521Z,18.43
2023-02-09T16:27:58.321Z,18.53
2023-02-09T16:33:04.419Z,17.63
2023-02-09T16:38:21.432Z,19.97
2023-02-09T16:43:25.377Z,19.93
2023-02-09T16:48:35.070Z,21.87
2023-02-09T16:53:52.300Z,19.53
2023-02-09T16:58:56.960Z,21.10
2023-02-09T17:04:02.362Z,26.43
2023-02-09T17:09:13.560Z,30.53
2023-02-09T17:14:19.248Z,27.40
2023-02-09T17:19:33.102Z,26.80
2023-02-09T17:24:45.899Z,26.73
2023-02-09T17:29:49.578Z,28.13
2023-02-09T17:34:55.317Z,28.87
2023-02-09T17:40:06.576Z,27.47
2023-02-09T17:45:22.372Z,28.20
2023-02-09T17:50:27.830Z,27.23
2023-02-09T17:55:32.607Z,24.27
2023-02-09T18:00:40.572Z,21.53
2023-02-09T18:05:49.529Z,22.10
2023-02-09T18:10:56.630Z,24.13
2023-02-09T18:16:03.353Z,27.13
2023-02-09T18:21:13.982Z,39.30
2023-02-09T18:26:19.409Z,30.27
2023-02-09T18:31:26.163Z,31.87
2023-02-09T18:36:33.926Z,34.67
2023-02-09T18:41:42.426Z,35.13
2023-02-09T18:46:48.804Z,28.43
2023-02-09T18:51:54.243Z,27.93
2023-02-09T18:57:02.914Z,23.87
2023-02-09T19:02:16.454Z,21.37
2023-02-09T19:07:22.918Z,18.60
2023-02-09T19:12:35.158Z,20.10
2023-02-09T19:17:48.057Z,15.57
2023-02-09T19:22:57.606Z,15.80
2023-02-09T19:28:03.599Z,16.20
2023-02-09T19:33:09.151Z,15.60
2023-02-09T19:38:14.412Z,14.57
2023-02-09T19:43:21.883Z,15.03
2023-02-09T19:48:32.668Z,14.40
2023-02-09T19:53:40.840Z,14.70
2023-02-09T19:58:47.509Z,14.03
2023-02-09T20:03:54.757Z,14.70
2023-02-09T20:09:04.406Z,15.00
2023-02-09T20:14:14.347Z,15.13
2023-02-09T20:19:19.737Z,14.70
2023-02-09T20:24:27.386Z,12.87
2023-02-09T20:29:32.963Z,14.07
2023-02-09T20:34:39.949Z,14.13
2023-02-09T20:39:46.442Z,16.33
2023-02-09T20:45:10.392Z,14.13
2023-02-09T20:50:18.195Z,14.93
2023-02-09T20:55:29.094Z,10.73
2023-02-09T21:00:34.386Z,12.67
2023-02-09T21:05:40.750Z,11.63
2023-02-09T21:10:47.818Z,12.37
2023-02-09T21:15:53.965Z,12.00
2023-02-09T21:21:01.635Z,12.07
2023-02-09T21:26:08.881Z,13.47
2023-02-09T21:31:18.452Z,12.03
2023-02-09T21:36:24.030Z,12.47
2023-02-09T21:41:46.961Z,12.20
2023-02-09T21:46:51.084Z,12.60
2023-02-09T21:51:54.577Z,11.70
2023-02-09T21:56:57.702Z,13.40
2023-02-09T22:02:00.982Z,12.53
2023-02-09T22:07:04.681Z,12.70
2023-02-09T22:12:09.144Z,14.67
2023-02-09T22:17:15.604Z,13.53
2023-02-09T22:22:20.106Z,12.90
2023-02-09T22:27:23.767Z,11.30
2023-02-09T22:32:27.161Z,11.77
2023-02-09T22:37:30.837Z,10.90
2023-02-09T22:42:34.504Z,11.70
2023-02-09T22:47:38.241Z,11.17
2023-02-09T22:52:41.422Z,12.23
2023-02-09T22:57:44.824Z,11.70
2023-02-09T23:02:49.281Z,11.07
2023-02-09T23:07:52.710Z,13.87
2023-02-09T23:12:55.893Z,14.00
2023-02-09T23:17:59.163Z,12.13
2023-02-09T23:23:06.922Z,11.47
2023-02-09T23:28:10.299Z,11.30
2023-02-09T23:33:13.638Z,11.07
2023-02-09T23:38:18.447Z,11.57
2023-02-09T23:43:21.877Z,11.73
2023-02-09T23:48:25.669Z,10.83
2023-02-09T23:53:30.379Z,10.30
2023-02-09T23:58:38.646Z,10.80
